createdAt,value
2023-05-05T00:01:02.301Z,100.00
2023-05-05T00:03:30.115Z,100.00
2023-05-05T00:05:57.644Z,100.00
2023-05-05T00:08:24.712Z,100.00
2023-05-05T00:10:53.003Z,100.00
2023-05-05T00:13:21.225Z,100.00
2023-05-05T00:15:50.405Z,100.00
2023-05-05T00:18:18.578Z,100.00
2023-05-05T00:20:49.310Z,100.00
2023-05-05T00:23:16.814Z,100.00
2023-05-05T00:25:43.940Z,100.00
2023-05-05T00:28:11.044Z,100.00
2023-05-05T00:30:40.076Z,100.00
2023-05-05T00:33:07.127Z,100.00
2023-05-05T00:35:34.755Z,100.00
2023-05-05T00:38:01.835Z,100.00
2023-05-05T00:40:28.819Z,100.00
2023-05-05T00:42:55.874Z,100.00
2023-05-05T00:45:22.703Z,100.00
2023-05-05T00:47:53.617Z,100.00
2023-05-05T00:50:25.782Z,100.00
2023-05-05T00:52:55.020Z,100.00
2023-05-05T00:55:22.171Z,100.00
2023-05-05T00:57:49.627Z,100.00
2023-05-05T01:00:18.181Z,100.00
2023-05-05T01:02:45.521Z,100.00
2023-05-05T01:05:14.491Z,100.00
2023-05-05T01:08:16.245Z,100.00
2023-05-05T01:10:53.455Z,100.00
2023-05-05T01:13:35.660Z,100.00
2023-05-05T01:16:27.013Z,100.00
2023-05-05T01:19:14.926Z,100.00
2023-05-05T01:21:48.582Z,100.00
2023-05-05T01:24:53.063Z,100.00
2023-05-05T01:27:28.534Z,100.00
2023-05-05T01:30:28.833Z,100.00
2023-05-05T01:33:02.826Z,100.00
2023-05-05T01:35:47.286Z,100.00
2023-05-05T01:38:19.415Z,100.00
2023-05-05T01:40:59.950Z,100.00
2023-05-05T01:43:33.927Z,100.00
2023-05-05T01:46:02.629Z,100.00
2023-05-05T01:48:31.113Z,100.00
2023-05-05T01:51:03.249Z,100.00
2023-05-05T01:53:31.453Z,100.00
2023-05-05T01:55:59.848Z,100.00
2023-05-05T01:58:29.486Z,100.00
2023-05-05T02:00:57.672Z,100.00
2023-05-05T02:03:26.905Z,100.00
2023-05-05T02:05:55.495Z,100.00
2023-05-05T02:08:26.049Z,100.00
2023-05-05T02:10:54.900Z,100.00
2023-05-05T02:13:24.854Z,100.00
2023-05-05T02:15:52.170Z,100.00
2023-05-05T02:18:20.155Z,100.00
2023-05-05T02:20:47.540Z,100.00
2023-05-05T02:23:14.583Z,100.00
2023-05-05T02:25:49.239Z,100.00
2023-05-05T02:28:21.524Z,100.00
2023-05-05T02:31:00.381Z,100.00
2023-05-05T02:33:32.654Z,100.00
2023-05-05T02:36:09.433Z,100.00
2023-05-05T02:38:41.761Z,100.00
2023-05-05T02:41:13.683Z,100.00
2023-05-05T02:43:43.369Z,100.00
2023-05-05T02:46:11.415Z,100.00
2023-05-05T02:48:40.980Z,100.00
2023-05-05T02:51:08.186Z,100.00
2023-05-05T02:53:37.403Z,100.00
2023-05-05T02:56:30.554Z,100.00
2023-05-05T02:59:31.169Z,100.00
2023-05-05T03:02:03.572Z,100.00
2023-05-05T03:04:40.021Z,100.00
2023-05-05T03:07:12.544Z,100.00
2023-05-05T03:09:46.081Z,100.00
2023-05-05T03:12:19.320Z,100.00
2023-05-05T03:14:58.772Z,100.00
2023-05-05T03:17:31.120Z,100.00
2023-05-05T03:20:02.272Z,100.00
2023-05-05T03:22:37.040Z,100.00
2023-05-05T03:25:06.393Z,100.00
2023-05-05T03:27:33.247Z,100.00
2023-05-05T03:30:00.781Z,100.00
2023-05-05T03:32:27.814Z,100.00
2023-05-05T03:34:55.728Z,100.00
2023-05-05T03:37:28.423Z,100.00
2023-05-05T03:39:57.380Z,100.00
2023-05-05T03:42:24.245Z,100.00
2023-05-05T03:44:53.781Z,100.00
2023-05-05T03:47:24.694Z,100.00
2023-05-05T03:49:53.042Z,100.00
2023-05-05T03:52:20.063Z,100.00
2023-05-05T03:54:47.014Z,100.00
2023-05-05T03:57:13.936Z,100.00
2023-05-05T03:59:41.465Z,100.00
2023-05-05T04:02:09.227Z,100.00
2023-05-05T04:04:36.410Z,100.00
2023-05-05T04:07:03.388Z,100.00
2023-05-05T04:09:30.601Z,100.00
2023-05-05T04:11:57.594Z,100.00
2023-05-05T04:14:25.820Z,100.00
2023-05-05T04:16:53.442Z,100.00
2023-05-05T04:19:21.158Z,100.00
2023-05-05T04:21:49.376Z,100.00
2023-05-05T04:24:16.315Z,100.00
2023-05-05T04:26:43.162Z,100.00
2023-05-05T04:29:10.997Z,100.00
2023-05-05T04:31:38.040Z,100.00
2023-05-05T04:34:05.132Z,100.00
2023-05-05T04:36:32.252Z,100.00
2023-05-05T04:38:59.804Z,100.00
2023-05-05T04:41:29.898Z,100.00
2023-05-05T04:43:58.167Z,100.00
2023-05-05T04:46:26.347Z,100.00
2023-05-05T04:48:53.313Z,100.00
2023-05-05T04:51:20.478Z,100.00
2023-05-05T04:53:47.514Z,100.00
2023-05-05T04:56:14.381Z,100.00
2023-05-05T04:58:41.474Z,100.00
2023-05-05T05:01:08.390Z,100.00
2023-05-05T05:03:35.402Z,100.00
2023-05-05T05:06:02.498Z,100.00
2023-05-05T05:08:29.707Z,100.00
2023-05-05T05:10:56.545Z,100.00
2023-05-05T05:13:23.431Z,100.00
2023-05-05T05:15:51.160Z,100.00
2023-05-05T05:18:18.410Z,100.00
2023-05-05T05:20:46.024Z,100.00
2023-05-05T05:23:14.082Z,100.00
2023-05-05T05:25:43.848Z,100.00
2023-05-05T05:28:12.095Z,100.00
2023-05-05T05:30:45.304Z,100.00
2023-05-05T05:33:12.366Z,100.00
2023-05-05T05:35:40.218Z,100.00
2023-05-05T05:38:07.662Z,100.00
2023-05-05T05:40:34.610Z,100.00
2023-05-05T05:43:03.013Z,100.00
2023-05-05T05:45:31.723Z,100.00
2023-05-05T05:47:58.830Z,100.00
2023-05-05T05:50:28.569Z,100.00
2023-05-05T05:52:56.878Z,100.00
2023-05-05T05:55:24.388Z,100.00
2023-05-05T05:57:52.209Z,100.00
2023-05-05T06:00:20.506Z,100.00
2023-05-05T06:02:54.862Z,100.00
2023-05-05T06:05:25.641Z,100.00
2023-05-05T06:07:52.812Z,100.00
2023-05-05T06:12:54.577Z,100.00
2023-05-05T06:15:21.677Z,100.00
2023-05-05T06:17:48.793Z,100.00
2023-05-05T06:20:15.971Z,100.00
2023-05-05T06:22:43.125Z,100.00
2023-05-05T06:25:11.053Z,100.00
2023-05-05T06:27:38.414Z,100.00
2023-05-05T06:30:06.841Z,100.00
2023-05-05T06:32:33.893Z,100.00
2023-05-05T06:35:01.339Z,100.00
2023-05-05T06:37:28.359Z,100.00
2023-05-05T06:39:55.215Z,100.00
2023-05-05T06:42:22.218Z,100.00
2023-05-05T06:44:49.204Z,100.00
2023-05-05T06:47:16.223Z,100.00
2023-05-05T06:49:43.378Z,100.00
2023-05-05T06:52:10.263Z,100.00
2023-05-05T06:54:37.600Z,100.00
2023-05-05T06:57:04.940Z,100.00
2023-05-05T06:59:32.688Z,100.00
2023-05-05T07:01:59.936Z,100.00
2023-05-05T07:04:27.001Z,100.00
2023-05-05T07:06:55.293Z,100.00
2023-05-05T07:09:22.184Z,100.00
2023-05-05T07:11:49.191Z,100.00
2023-05-05T07:14:16.094Z,100.00
2023-05-05T07:16:42.940Z,100.00
2023-05-05T07:19:10.108Z,100.00
2023-05-05T07:21:37.742Z,100.00
2023-05-05T07:24:05.503Z,100.00
2023-05-05T07:26:33.039Z,100.00
2023-05-05T07:29:00.140Z,100.00
2023-05-05T07:31:27.060Z,100.00
2023-05-05T07:33:54.168Z,100.00
2023-05-05T07:36:21.292Z,100.00
2023-05-05T07:38:48.135Z,100.00
2023-05-05T07:41:16.334Z,100.00
2023-05-05T07:43:44.692Z,100.00
2023-05-05T07:46:12.182Z,100.00
2023-05-05T07:48:41.825Z,100.00
2023-05-05T07:51:09.368Z,100.00
2023-05-05T07:53:37.037Z,100.00
2023-05-05T07:56:04.177Z,100.00
2023-05-05T07:58:31.132Z,100.00
2023-05-05T08:00:58.041Z,100.00
2023-05-05T08:03:25.314Z,100.00
2023-05-05T08:05:54.645Z,100.00
2023-05-05T08:08:24.916Z,100.00
2023-05-05T08:10:53.507Z,100.00
2023-05-05T08:13:20.575Z,100.00
2023-05-05T08:15:47.806Z,100.00
2023-05-05T08:18:15.154Z,100.00
2023-05-05T08:20:42.074Z,100.00
2023-05-05T08:23:08.938Z,100.00
2023-05-05T08:25:36.210Z,100.00
2023-05-05T08:28:03.378Z,100.00
2023-05-05T08:30:30.943Z,100.00
2023-05-05T08:32:57.973Z,100.00
2023-05-05T08:35:24.968Z,100.00
2023-05-05T08:37:52.052Z,100.00
2023-05-05T08:40:21.442Z,100.00
2023-05-05T08:42:48.459Z,100.00
2023-05-05T08:45:16.017Z,100.00
2023-05-05T08:47:43.690Z,100.00
2023-05-05T08:50:11.576Z,100.00
2023-05-05T08:52:46.894Z,100.00
2023-05-05T08:55:24.449Z,100.00
2023-05-05T08:57:54.669Z,100.00
2023-05-05T09:00:22.516Z,100.00
2023-05-05T09:02:50.181Z,100.00
2023-05-05T09:05:17.844Z,100.00
2023-05-05T09:07:45.245Z,100.00
2023-05-05T09:10:12.678Z,100.00
2023-05-05T09:12:43.154Z,100.00
2023-05-05T09:15:14.682Z,100.00
2023-05-05T09:17:42.319Z,100.00
2023-05-05T09:20:15.107Z,100.00
2023-05-05T09:22:44.721Z,100.00
2023-05-05T09:25:13.960Z,100.00
2023-05-05T09:27:43.406Z,100.00
2023-05-05T09:30:15.062Z,100.00
2023-05-05T09:32:46.607Z,100.00
2023-05-05T09:35:14.026Z,100.00
2023-05-05T09:37:41.168Z,100.00
2023-05-05T09:40:09.529Z,100.00
2023-05-05T09:42:40.816Z,100.00
2023-05-05T09:45:20.179Z,100.00
2023-05-05T09:47:48.110Z,100.00
2023-05-05T09:50:19.048Z,100.00
2023-05-05T09:52:56.604Z,100.00
2023-05-05T09:55:24.712Z,100.00
2023-05-05T09:57:51.858Z,100.00
2023-05-05T10:00:19.701Z,100.00
2023-05-05T10:02:46.905Z,100.00
2023-05-05T10:05:18.720Z,100.00
2023-05-05T10:07:47.585Z,100.00
2023-05-05T10:10:17.183Z,100.00
2023-05-05T10:12:47.446Z,100.00
2023-05-05T10:15:16.073Z,100.00
2023-05-05T10:18:05.938Z,100.00
2023-05-05T10:20:36.632Z,100.00
2023-05-05T10:23:08.204Z,100.00
2023-05-05T10:25:42.446Z,100.00
2023-05-05T10:28:16.697Z,100.00
2023-05-05T10:30:46.246Z,100.00
2023-05-05T10:33:31.551Z,100.00
2023-05-05T10:36:02.482Z,100.00
2023-05-05T10:38:34.283Z,100.00
2023-05-05T10:41:04.772Z,100.00
2023-05-05T10:43:32.093Z,100.00
2023-05-05T10:46:00.230Z,100.00
2023-05-05T10:48:47.270Z,100.00
2023-05-05T10:51:49.818Z,100.00
2023-05-05T10:54:38.336Z,100.00
2023-05-05T10:57:09.930Z,100.00
2023-05-05T10:59:37.085Z,95.78
2023-05-05T11:02:24.225Z,95.50
2023-05-05T11:05:13.632Z,94.72
2023-05-05T11:07:44.798Z,94.54
2023-05-05T11:10:14.330Z,92.76
2023-05-05T11:13:10.804Z,86.81
2023-05-05T11:15:38.442Z,88.81
2023-05-05T11:18:07.874Z,86.51
2023-05-05T11:20:35.937Z,86.16
2023-05-05T11:23:03.244Z,85.02
2023-05-05T11:25:41.053Z,84.72
2023-05-05T11:28:11.559Z,84.14
2023-05-05T11:30:57.518Z,84.68
2023-05-05T11:33:39.076Z,84.74
2023-05-05T11:36:10.367Z,84.24
2023-05-05T11:39:10.201Z,85.16
2023-05-05T11:41:59.502Z,83.85
2023-05-05T11:44:31.789Z,85.62
2023-05-05T11:47:02.806Z,87.41
2023-05-05T11:49:31.354Z,85.22
2023-05-05T11:52:01.418Z,85.53
2023-05-05T11:54:29.142Z,85.72
2023-05-05T11:57:07.292Z,84.00
2023-05-05T11:59:49.767Z,83.53
2023-05-05T12:02:18.061Z,84.90
2023-05-05T12:04:45.610Z,86.53
2023-05-05T12:07:19.806Z,88.03
2023-05-05T12:09:48.190Z,89.77
2023-05-05T12:12:16.114Z,93.08
2023-05-05T12:14:52.535Z,93.39
2023-05-05T12:17:21.537Z,94.59
2023-05-05T12:19:53.830Z,94.21
2023-05-05T12:22:22.977Z,94.22
2023-05-05T12:25:08.977Z,92.90
2023-05-05T12:27:36.265Z,92.93
2023-05-05T12:30:15.275Z,90.34
2023-05-05T12:32:42.328Z,92.24
2023-05-05T12:35:10.170Z,92.12
2023-05-05T12:37:38.124Z,93.45
2023-05-05T12:40:06.692Z,94.30
2023-05-05T12:42:39.032Z,95.54
2023-05-05T12:45:16.063Z,97.98
2023-05-05T12:47:44.756Z,97.46
2023-05-05T12:50:11.797Z,98.31
2023-05-05T12:52:43.771Z,96.90
2023-05-05T12:55:11.587Z,93.47
2023-05-05T12:57:58.779Z,94.13
2023-05-05T13:00:27.469Z,95.50
2023-05-05T13:02:54.375Z,97.00
2023-05-05T13:05:36.344Z,97.97
2023-05-05T13:08:03.419Z,98.75
2023-05-05T13:10:31.472Z,96.89
2023-05-05T13:12:58.758Z,97.61
2023-05-05T13:15:26.222Z,98.12
2023-05-05T13:18:03.027Z,100.00
2023-05-05T13:20:30.119Z,100.00
2023-05-05T13:22:57.427Z,100.00
2023-05-05T13:25:24.453Z,100.00
2023-05-05T13:27:51.383Z,100.00
2023-05-05T13:30:18.238Z,100.00
2023-05-05T13:32:45.513Z,100.00
2023-05-05T13:35:15.971Z,100.00
2023-05-05T13:37:44.389Z,100.00
2023-05-05T13:40:13.353Z,100.00
2023-05-05T13:42:40.577Z,100.00
2023-05-05T13:45:08.105Z,100.00
2023-05-05T13:47:35.635Z,100.00
2023-05-05T13:50:03.055Z,100.00
2023-05-05T13:52:32.150Z,100.00
2023-05-05T13:55:01.058Z,100.00
2023-05-05T13:57:28.240Z,100.00
2023-05-05T13:59:55.211Z,100.00
2023-05-05T14:02:22.473Z,100.00
2023-05-05T14:04:50.181Z,100.00
2023-05-05T14:07:17.281Z,100.00
2023-05-05T14:09:44.234Z,100.00
2023-05-05T14:12:11.229Z,100.00
2023-05-05T14:14:38.066Z,100.00
2023-05-05T14:17:05.057Z,100.00
2023-05-05T14:19:32.484Z,100.00
2023-05-05T14:21:59.877Z,100.00
2023-05-05T14:24:27.373Z,100.00
2023-05-05T14:26:54.508Z,100.00
2023-05-05T14:29:22.165Z,100.00
2023-05-05T14:31:49.032Z,100.00
2023-05-05T14:34:16.226Z,100.00
2023-05-05T14:36:43.266Z,100.00
2023-05-05T14:39:10.312Z,100.00
2023-05-05T14:41:37.391Z,100.00
2023-05-05T14:44:04.400Z,100.00
2023-05-05T14:46:32.404Z,100.00
2023-05-05T14:49:00.147Z,100.00
2023-05-05T14:51:27.116Z,100.00
2023-05-05T14:53:54.363Z,100.00
2023-05-05T14:56:22.934Z,100.00
2023-05-05T14:58:50.344Z,100.00
2023-05-05T15:01:17.530Z,100.00
2023-05-05T15:03:44.801Z,100.00
2023-05-05T15:06:12.493Z,100.00
2023-05-05T15:08:39.566Z,100.00
2023-05-05T15:11:06.836Z,100.00
2023-05-05T15:13:33.842Z,100.00
2023-05-05T15:16:01.640Z,100.00
2023-05-05T15:18:29.844Z,100.00
2023-05-05T15:20:58.112Z,100.00
2023-05-05T15:23:25.056Z,100.00
2023-05-05T15:25:51.937Z,100.00
2023-05-05T15:28:19.174Z,100.00
2023-05-05T15:30:46.159Z,100.00
2023-05-05T15:33:13.065Z,100.00
2023-05-05T15:35:40.017Z,100.00
2023-05-05T15:38:07.538Z,100.00
2023-05-05T15:40:34.755Z,100.00
2023-05-05T15:43:01.752Z,100.00
2023-05-05T15:45:28.676Z,100.00
2023-05-05T15:47:56.437Z,100.00
2023-05-05T15:50:24.067Z,100.00
2023-05-05T15:52:51.060Z,100.00
2023-05-05T15:55:17.950Z,100.00
2023-05-05T15:57:44.929Z,100.00
2023-05-05T16:00:12.532Z,100.00
2023-05-05T16:02:39.964Z,100.00
2023-05-05T16:05:07.478Z,100.00
2023-05-05T16:07:34.696Z,100.00
2023-05-05T16:10:01.896Z,100.00
2023-05-05T16:12:29.055Z,100.00
2023-05-05T16:14:58.057Z,100.00
2023-05-05T16:17:25.112Z,100.00
2023-05-05T16:19:52.100Z,100.00
2023-05-05T16:22:20.954Z,100.00
2023-05-05T16:24:48.892Z,100.00
2023-05-05T16:27:16.520Z,100.00
2023-05-05T16:29:43.410Z,100.00
2023-05-05T16:32:10.443Z,100.00
2023-05-05T16:34:37.318Z,100.00
2023-05-05T16:37:04.335Z,100.00
2023-05-05T16:39:33.084Z,100.00
2023-05-05T16:41:59.978Z,100.00
2023-05-05T16:44:26.821Z,100.00
2023-05-05T16:46:53.607Z,100.00
2023-05-05T16:49:20.646Z,100.00
2023-05-05T16:51:47.508Z,100.00
2023-05-05T16:54:14.395Z,100.00
2023-05-05T16:56:42.172Z,100.00
2023-05-05T16:59:09.418Z,100.00
2023-05-05T17:01:38.261Z,100.00
2023-05-05T17:04:05.386Z,100.00
2023-05-05T17:06:33.055Z,100.00
2023-05-05T17:09:00.948Z,100.00
2023-05-05T17:11:28.023Z,100.00
2023-05-05T17:13:55.407Z,100.00
2023-05-05T17:16:22.883Z,100.00
2023-05-05T17:18:50.195Z,100.00
2023-05-05T17:21:17.504Z,100.00
2023-05-05T17:23:44.902Z,100.00
2023-05-05T17:26:12.286Z,100.00
2023-05-05T17:28:39.664Z,100.00
2023-05-05T17:31:07.658Z,100.00
2023-05-05T17:33:35.025Z,100.00
2023-05-05T17:36:02.188Z,100.00
2023-05-05T17:38:29.644Z,100.00
2023-05-05T17:40:56.663Z,100.00
2023-05-05T17:43:23.569Z,100.00
2023-05-05T17:45:50.534Z,100.00
2023-05-05T17:48:17.495Z,100.00
2023-05-05T17:50:44.966Z,100.00
2023-05-05T17:53:12.476Z,100.00
2023-05-05T17:55:39.337Z,100.00
2023-05-05T17:58:06.306Z,100.00
2023-05-05T18:00:33.214Z,100.00
2023-05-05T18:03:01.342Z,100.00
2023-05-05T18:05:28.350Z,100.00
2023-05-05T18:07:55.361Z,100.00
2023-05-05T18:10:22.408Z,100.00
2023-05-05T18:12:49.659Z,100.00
2023-05-05T18:15:16.609Z,100.00
2023-05-05T18:17:44.322Z,100.00
2023-05-05T18:20:11.677Z,100.00
2023-05-05T18:22:38.563Z,100.00
2023-05-05T18:25:07.962Z,100.00
2023-05-05T18:27:36.168Z,100.00
2023-05-05T18:30:04.831Z,100.00
2023-05-05T18:32:32.179Z,100.00
2023-05-05T18:34:59.706Z,100.00
2023-05-05T18:37:27.920Z,100.00
2023-05-05T18:39:54.918Z,100.00
2023-05-05T18:42:22.686Z,100.00
2023-05-05T18:44:49.633Z,100.00
2023-05-05T18:47:17.168Z,100.00
2023-05-05T18:49:45.476Z,100.00
2023-05-05T18:52:12.310Z,100.00
2023-05-05T18:54:39.316Z,100.00
2023-05-05T18:57:06.130Z,100.00
2023-05-05T18:59:32.982Z,100.00
2023-05-05T19:02:00.047Z,100.00
2023-05-05T19:04:31.359Z,100.00
2023-05-05T19:06:59.989Z,100.00
2023-05-05T19:09:28.037Z,100.00
2023-05-05T19:11:55.012Z,100.00
2023-05-05T19:14:22.875Z,100.00
2023-05-05T19:16:50.289Z,100.00
2023-05-05T19:19:17.537Z,100.00
2023-05-05T19:21:44.634Z,100.00
2023-05-05T19:24:11.952Z,100.00
2023-05-05T19:26:39.089Z,100.00
2023-05-05T19:29:06.481Z,100.00
2023-05-05T19:31:33.558Z,100.00
2023-05-05T19:34:03.094Z,100.00
2023-05-05T19:36:33.568Z,100.00
2023-05-05T19:39:02.506Z,100.00
2023-05-05T19:41:31.030Z,100.00
2023-05-05T19:43:58.042Z,100.00
2023-05-05T19:46:26.923Z,100.00
2023-05-05T19:48:53.878Z,100.00
2023-05-05T19:51:20.795Z,100.00
2023-05-05T19:53:47.824Z,100.00
2023-05-05T19:56:14.722Z,100.00
2023-05-05T19:59:00.822Z,100.00
2023-05-05T20:01:29.797Z,100.00
2023-05-05T20:03:57.496Z,100.00
2023-05-05T20:06:24.825Z,100.00
2023-05-05T20:08:52.330Z,100.00
2023-05-05T20:11:20.162Z,100.00
2023-05-05T20:13:47.678Z,100.00
2023-05-05T20:16:15.148Z,100.00
2023-05-05T20:18:42.365Z,100.00
2023-05-05T20:21:09.590Z,100.00
2023-05-05T20:23:37.130Z,100.00
2023-05-05T20:26:04.069Z,100.00
2023-05-05T20:28:32.002Z,100.00
2023-05-05T20:31:00.885Z,100.00
2023-05-05T20:33:28.974Z,100.00
2023-05-05T20:35:56.806Z,100.00
2023-05-05T20:38:23.919Z,100.00
2023-05-05T20:40:52.166Z,100.00
2023-05-05T20:43:19.698Z,100.00
2023-05-05T20:45:46.699Z,100.00
2023-05-05T20:48:13.764Z,100.00
2023-05-05T20:50:42.336Z,100.00
2023-05-05T20:53:11.051Z,100.00
2023-05-05T20:55:37.958Z,100.00
2023-05-05T20:58:06.890Z,100.00
2023-05-05T21:00:33.959Z,100.00
2023-05-05T21:03:02.847Z,100.00
2023-05-05T21:05:31.747Z,100.00
2023-05-05T21:08:00.892Z,100.00
2023-05-05T21:10:33.217Z,100.00
2023-05-05T21:13:02.421Z,100.00
2023-05-05T21:15:29.758Z,100.00
2023-05-05T21:17:57.141Z,100.00
2023-05-05T21:20:24.485Z,100.00
2023-05-05T21:22:51.714Z,100.00
2023-05-05T21:25:21.055Z,100.00
2023-05-05T21:27:49.052Z,100.00
2023-05-05T21:30:16.972Z,100.00
2023-05-05T21:32:44.633Z,100.00
2023-05-05T21:35:12.252Z,100.00
2023-05-05T21:37:39.965Z,100.00
2023-05-05T21:40:13.942Z,100.00
2023-05-05T21:42:41.539Z,100.00
2023-05-05T21:45:09.291Z,100.00
2023-05-05T21:47:36.474Z,100.00
2023-05-05T21:50:03.481Z,100.00
2023-05-05T21:52:30.776Z,100.00
2023-05-05T21:54:57.840Z,100.00
2023-05-05T21:57:24.965Z,100.00
2023-05-05T21:59:51.903Z,100.00
2023-05-05T22:02:18.867Z,100.00
2023-05-05T22:04:48.511Z,100.00
2023-05-05T22:07:15.474Z,100.00
2023-05-05T22:09:43.254Z,100.00
2023-05-05T22:12:10.151Z,100.00
2023-05-05T22:14:37.366Z,100.00
2023-05-05T22:17:04.425Z,100.00
2023-05-05T22:19:31.577Z,100.00
2023-05-05T22:21:58.963Z,100.00
2023-05-05T22:24:25.959Z,100.00
2023-05-05T22:26:53.659Z,100.00
2023-05-05T22:29:20.487Z,100.00
2023-05-05T22:31:47.636Z,100.00
2023-05-05T22:34:15.234Z,100.00
2023-05-05T22:36:42.311Z,100.00
2023-05-05T22:39:09.442Z,100.00
2023-05-05T22:41:36.613Z,100.00
2023-05-05T22:44:04.503Z,100.00
2023-05-05T22:46:32.180Z,100.00
2023-05-05T22:48:59.086Z,100.00
2023-05-05T22:51:27.812Z,100.00
2023-05-05T22:53:54.786Z,100.00
2023-05-05T22:56:21.743Z,100.00
2023-05-05T22:58:48.913Z,100.00
2023-05-05T23:01:16.131Z,100.00
2023-05-05T23:03:43.076Z,100.00
2023-05-05T23:06:10.076Z,100.00
2023-05-05T23:08:36.985Z,100.00
2023-05-05T23:11:04.042Z,100.00
2023-05-05T23:13:31.304Z,100.00
2023-05-05T23:15:58.244Z,100.00
2023-05-05T23:18:25.128Z,100.00
2023-05-05T23:20:52.117Z,100.00
2023-05-05T23:23:19.145Z,100.00
2023-05-05T23:25:46.099Z,100.00
2023-05-05T23:28:13.013Z,100.00
2023-05-05T23:30:40.011Z,100.00
2023-05-05T23:33:07.006Z,100.00
2023-05-05T23:35:34.248Z,100.00
2023-05-05T23:38:02.116Z,100.00
2023-05-05T23:40:29.224Z,100.00
2023-05-05T23:42:57.547Z,100.00
2023-05-05T23:45:24.875Z,100.00
2023-05-05T23:47:52.809Z,100.00
2023-05-05T23:50:20.247Z,100.00
2023-05-05T23:52:47.353Z,100.00
2023-05-05T23:55:14.578Z,100.00
2023-05-05T23:57:41.475Z,100.00
